PDT,Max TemperatureF,Mean TemperatureF,Min TemperatureF,Max Dew PointF,MeanDew PointF,Min DewpointF,Max Humidity, Mean Humidity, Min Humidity, Max Sea Level PressureIn, Mean Sea Level PressureIn, Min Sea Level PressureIn, Max VisibilityMiles, Mean VisibilityMiles, Min VisibilityMiles, Max Wind SpeedMPH, Mean Wind SpeedMPH, Max Gust SpeedMPH,PrecipitationIn, CloudCover, Events, WindDirDegrees
2012-10-1,42,38,33,36,34,31,100,87,64,30.40,30.15,30.01,10,5,0,8,2,,0.00,7,Fog-Rain,230
2012-10-2,44,36,27,30,28,26,100,78,35,30.53,30.48,30.38,20,11,0,12,2,,0.00,7,Fog,60
2012-10-3,47,36,26,28,26,23,93,70,26,30.42,30.40,30.32,20,20,20,12,2,,0.00,4,,40
2012-10-4,47,39,31,37,32,23,93,69,44,30.29,30.23,30.19,20,20,20,12,5,,0.00,7,,48
2012-10-5,45,39,33,38,34,30,93,75,49,30.30,30.27,30.16,20,20,20,5,2,,0.00,7,Rain,26
2012-10-6,46,40,34,43,38,35,100,94,80,30.29,30.16,30.11,15,5,2,5,1,,0.08,7,Fog-Rain,244
2012-10-7,44,39,34,39,36,34,100,93,76,30.36,30.33,30.25,20,3,1,7,2,,0.00,7,Fog,54
2012-10-8,43,38,35,41,38,36,100,93,81,30.23,30.15,30.11,10,3,0,4,1,,0.00,8,Fog-Rain,70
2012-10-9,40,33,23,31,27,18,93,74,32,30.50,30.36,30.22,20,20,20,8,3,,0.00,6,,210
2012-10-10,35,23,11,28,13,7,86,69,26,30.51,30.42,30.32,20,20,20,7,4,,0.00,0,,84
2012-10-11,27,14,0,19,4,-6,86,70,30,30.37,30.20,29.94,20,20,20,6,3,,0.00,0,,87
2012-10-12,27,14,4,21,13,2,86,77,53,29.87,29.66,29.53,20,20,20,5,2,,0.00,7,Snow,55
2012-10-13,31,22,15,27,16,12,86,73,55,29.54,29.52,29.50,20,20,20,5,1,,0.00,8,,30
2012-10-14,34,26,19,30,22,17,93,71,48,29.49,29.32,29.21,20,20,20,4,1,,0.00,8,,-1
2012-10-15,33,30,26,32,29,26,100,91,78,29.21,29.14,29.12,7,4,0,8,4,,0.03,8,Snow,52
2012-10-16,30,28,25,27,25,23,93,86,74,29.61,29.32,29.17,20,5,0,5,1,,0.16,8,Snow,213
2012-10-17,28,22,17,25,23,15,93,87,74,29.84,29.79,29.66,15,6,2,9,3,,0.00,8,Snow,248
2012-10-18,26,18,10,21,15,9,89,83,64,29.95,29.84,29.72,20,20,20,7,2,,0.00,7,Fog,233
2012-10-19,25,18,4,19,13,2,91,80,54,30.26,30.09,29.98,20,20,20,7,1,,0.00,6,,215
2012-10-20,21,7,-7,18,-2,-9,92,76,58,30.63,30.46,30.32,20,20,20,5,1,,0.00,2,,233
2012-10-21,8,-3,-14,4,-10,-18,84,74,65,30.78,30.73,30.67,20,13,0,2,1,,0.00,4,Fog,-1
2012-10-22,6,-6,-18,0,-16,-24,78,69,57,30.69,30.64,30.56,20,20,20,2,0,,0.00,0,,-1
2012-10-23,3,-8,-19,-3,-16,-27,84,71,58,30.71,30.68,30.62,20,15,1,2,1,,0.00,3,,230
2012-10-24,9,-3,-15,1,-12,-18,79,71,62,30.87,30.80,30.72,20,20,20,4,1,,0.00,0,,240
2012-10-25,2,-8,-18,-5,-18,-27,77,66,58,30.90,30.86,30.76,20,20,20,4,1,,0.00,0,,-1
2012-10-26,0,-9,-18,-7,-17,-26,78,68,63,30.75,30.69,30.56,20,20,20,1,0,,0.00,1,,-1
2012-10-27,6,-6,-17,0,-8,-17,78,71,60,30.52,30.43,30.31,20,20,20,4,1,,0.00,3,Snow,70
2012-10-28,8,0,-8,3,-5,-13,85,74,60,30.34,30.30,30.24,20,18,5,6,3,,0.00,1,Snow,74
2012-10-29,7,0,-7,2,-4,-9,79,72,66,30.30,30.14,30.04,20,15,1,12,5,,0.00,7,Snow,69
2012-10-30,1,-8,-17,-4,-13,-18,84,71,64,30.12,30.10,30.03,20,20,20,4,1,,0.00,5,Snow,-1
2012-10-31,14,2,-11,10,3,-5,85,78,70,29.99,29.92,29.89,20,13,3,5,1,,0.00,7,Snow,230